パラオ の空港の天気 - METARとTAF

パラオ国際空港 ( PTRO / ROR ) - パラオ アイライ州
飛行場実況気象(Metar)
観測時間12/10 13:51 PWT (12/10 04:51 UTC)
風向・風速北東 4m/s 瞬間風速9m/s
視程10km以上
天気現象
少しの雲 雲底高度 300m
全天の4割程度の雲 雲底高度 490m
全天の8割程度の雲 雲底高度 3660m
全天の8割程度の雲 雲底高度 9140m
気温30℃
湿度70%
気圧1007hPa
METARPTRO 100451Z 05008G18KT 15SM FEW010 SCT016 BKN120 BKN300 30/24 A2975
過去の天気等 Google飛行場航空写真 Wunderground天気予報

過去48時間のMETAR

飛行場予報(TAF)
発表時間: 12/10 08:30 PWT (12/09 23:30 UTC)
予報対象時間: 10日9時 PWT ~ 11日9時 PWT
風向・風速東北東 5m/s 瞬間風速 9m/s
視程10km以上
天気現象周辺でしゅう雨
全天の4割程度の雲 雲底高度 490m
全天の4割程度の雲 雲底高度 1220m
PTRO 092330Z 1000/1024 06010G18KT P6SM VCSH SCT016 SCT040